sensor_id;sensor_type;location;lat;lon;timestamp;P1;durP1;ratioP1;P2;durP2;ratioP2
10041;SDS011;5061;49.068;12.058;2022-09-09T00:03:25;1.37;;;1.27;;
10041;SDS011;5061;49.068;12.058;2022-09-09T00:13:56;1.73;;;1.43;;
10041;SDS011;5061;49.068;12.058;2022-09-09T00:24:34;1.90;;;1.33;;
10041;SDS011;5061;49.068;12.058;2022-09-09T00:28:18;1.17;;;1.07;;
10041;SDS011;5061;49.068;12.058;2022-09-09T00:31:43;1.57;;;1.47;;
10041;SDS011;5061;49.068;12.058;2022-09-09T00:35:25;1.70;;;1.60;;
10041;SDS011;5061;49.068;12.058;2022-09-09T00:38:48;1.70;;;1.60;;
10041;SDS011;5061;49.068;12.058;2022-09-09T00:42:16;1.83;;;1.73;;
10041;SDS011;5061;49.068;12.058;2022-09-09T01:00:25;1.70;;;1.60;;
10041;SDS011;5061;49.068;12.058;2022-09-09T01:03:50;1.57;;;1.47;;
10041;SDS011;5061;49.068;12.058;2022-09-09T01:07:16;1.50;;;1.40;;
10041;SDS011;5061;49.068;12.058;2022-09-09T01:10:44;1.27;;;1.17;;
10041;SDS011;5061;49.068;12.058;2022-09-09T01:18:10;1.20;;;1.10;;
10041;SDS011;5061;49.068;12.058;2022-09-09T01:21:43;1.47;;;1.10;;
10041;SDS011;5061;49.068;12.058;2022-09-09T01:29:25;1.50;;;1.40;;
10041;SDS011;5061;49.068;12.058;2022-09-09T01:32:46;1.80;;;1.60;;
10041;SDS011;5061;49.068;12.058;2022-09-09T01:36:12;5.73;;;1.80;;
10041;SDS011;5061;49.068;12.058;2022-09-09T01:39:41;1.80;;;1.70;;
10041;SDS011;5061;49.068;12.058;2022-09-09T01:43:04;2.00;;;1.90;;
10041;SDS011;5061;49.068;12.058;2022-09-09T01:46:26;2.00;;;1.80;;
10041;SDS011;5061;49.068;12.058;2022-09-09T01:49:48;1.73;;;1.63;;
10041;SDS011;5061;49.068;12.058;2022-09-09T01:53:09;2.00;;;1.90;;
10041;SDS011;5061;49.068;12.058;2022-09-09T01:56:46;2.63;;;1.70;;
10041;SDS011;5061;49.068;12.058;2022-09-09T02:00:25;1.77;;;1.53;;
10041;SDS011;5061;49.068;12.058;2022-09-09T02:03:47;1.77;;;1.27;;
10041;SDS011;5061;49.068;12.058;2022-09-09T02:07:16;1.70;;;1.60;;
10041;SDS011;5061;49.068;12.058;2022-09-09T02:11:02;1.60;;;1.50;;
10041;SDS011;5061;49.068;12.058;2022-09-09T02:14:30;1.77;;;1.67;;
10041;SDS011;5061;49.068;12.058;2022-09-09T02:17:57;1.60;;;1.50;;
10041;SDS011;5061;49.068;12.058;2022-09-09T02:21:20;1.90;;;1.80;;
10041;SDS011;5061;49.068;12.058;2022-09-09T02:24:43;1.90;;;1.53;;
10041;SDS011;5061;49.068;12.058;2022-09-09T02:28:06;2.03;;;1.90;;
10041;SDS011;5061;49.068;12.058;2022-09-09T02:31:29;2.17;;;1.97;;
10041;SDS011;5061;49.068;12.058;2022-09-09T02:34:53;2.00;;;1.80;;
10041;SDS011;5061;49.068;12.058;2022-09-09T02:38:17;2.30;;;2.10;;
10041;SDS011;5061;49.068;12.058;2022-09-09T02:41:41;2.37;;;2.17;;
10041;SDS011;5061;49.068;12.058;2022-09-09T02:45:02;2.10;;;1.97;;
10041;SDS011;5061;49.068;12.058;2022-09-09T02:48:30;2.53;;;2.33;;
10041;SDS011;5061;49.068;12.058;2022-09-09T02:52:07;2.50;;;2.20;;
10041;SDS011;5061;49.068;12.058;2022-09-09T02:59:06;2.10;;;1.90;;
10041;SDS011;5061;49.068;12.058;2022-09-09T03:02:27;1.83;;;1.73;;
10041;SDS011;5061;49.068;12.058;2022-09-09T03:05:47;2.50;;;2.30;;
10041;SDS011;5061;49.068;12.058;2022-09-09T03:09:08;1.73;;;1.63;;
10041;SDS011;5061;49.068;12.058;2022-09-09T03:12:30;2.57;;;2.37;;
10041;SDS011;5061;49.068;12.058;2022-09-09T03:15:51;2.40;;;2.20;;
10041;SDS011;5061;49.068;12.058;2022-09-09T03:19:11;2.60;;;2.40;;
10041;SDS011;5061;49.068;12.058;2022-09-09T03:22:32;3.27;;;2.57;;
10041;SDS011;5061;49.068;12.058;2022-09-09T03:25:53;3.10;;;2.80;;
10041;SDS011;5061;49.068;12.058;2022-09-09T03:29:16;3.23;;;2.93;;
10041;SDS011;5061;49.068;12.058;2022-09-09T03:32:38;2.70;;;2.50;;
10041;SDS011;5061;49.068;12.058;2022-09-09T03:36:00;3.27;;;2.93;;
10041;SDS011;5061;49.068;12.058;2022-09-09T03:39:20;2.97;;;2.67;;
10041;SDS011;5061;49.068;12.058;2022-09-09T03:42:41;2.10;;;1.90;;
10041;SDS011;5061;49.068;12.058;2022-09-09T03:46:02;3.67;;;2.30;;
10041;SDS011;5061;49.068;12.058;2022-09-09T03:49:22;3.03;;;2.73;;
10041;SDS011;5061;49.068;12.058;2022-09-09T03:52:44;2.70;;;2.50;;
10041;SDS011;5061;49.068;12.058;2022-09-09T03:56:05;4.80;;;3.23;;
10041;SDS011;5061;49.068;12.058;2022-09-09T03:59:26;2.93;;;2.43;;
10041;SDS011;5061;49.068;12.058;2022-09-09T04:02:47;3.30;;;3.00;;
10041;SDS011;5061;49.068;12.058;2022-09-09T04:06:10;3.40;;;2.87;;
10041;SDS011;5061;49.068;12.058;2022-09-09T04:09:33;3.23;;;2.93;;
10041;SDS011;5061;49.068;12.058;2022-09-09T04:12:54;3.13;;;2.83;;
10041;SDS011;5061;49.068;12.058;2022-09-09T04:16:15;3.20;;;2.90;;
10041;SDS011;5061;49.068;12.058;2022-09-09T04:19:35;4.10;;;3.67;;
10041;SDS011;5061;49.068;12.058;2022-09-09T04:22:56;4.70;;;4.27;;
10041;SDS011;5061;49.068;12.058;2022-09-09T04:26:17;3.87;;;3.57;;
10041;SDS011;5061;49.068;12.058;2022-09-09T04:29:38;2.93;;;2.70;;
10041;SDS011;5061;49.068;12.058;2022-09-09T04:32:58;2.83;;;2.63;;
10041;SDS011;5061;49.068;12.058;2022-09-09T04:36:19;3.07;;;2.77;;
10041;SDS011;5061;49.068;12.058;2022-09-09T04:39:40;3.00;;;2.63;;
10041;SDS011;5061;49.068;12.058;2022-09-09T04:43:01;2.50;;;2.30;;
10041;SDS011;5061;49.068;12.058;2022-09-09T04:46:24;3.07;;;2.80;;
10041;SDS011;5061;49.068;12.058;2022-09-09T04:49:45;2.83;;;2.63;;
10041;SDS011;5061;49.068;12.058;2022-09-09T04:53:06;2.43;;;2.23;;
10041;SDS011;5061;49.068;12.058;2022-09-09T04:56:26;2.60;;;2.27;;
10041;SDS011;5061;49.068;12.058;2022-09-09T04:59:48;2.53;;;2.33;;
10041;SDS011;5061;49.068;12.058;2022-09-09T05:03:08;2.90;;;2.67;;
10041;SDS011;5061;49.068;12.058;2022-09-09T05:06:29;2.93;;;2.63;;
10041;SDS011;5061;49.068;12.058;2022-09-09T05:09:51;3.47;;;2.87;;
10041;SDS011;5061;49.068;12.058;2022-09-09T05:13:12;3.10;;;2.80;;
10041;SDS011;5061;49.068;12.058;2022-09-09T05:16:32;4.13;;;3.73;;
10041;SDS011;5061;49.068;12.058;2022-09-09T05:19:53;3.67;;;3.37;;
10041;SDS011;5061;49.068;12.058;2022-09-09T05:23:14;4.00;;;3.50;;
10041;SDS011;5061;49.068;12.058;2022-09-09T05:26:34;4.07;;;3.37;;
10041;SDS011;5061;49.068;12.058;2022-09-09T05:29:55;4.20;;;3.10;;
10041;SDS011;5061;49.068;12.058;2022-09-09T05:33:16;4.40;;;4.00;;
10041;SDS011;5061;49.068;12.058;2022-09-09T05:36:37;4.13;;;3.60;;
10041;SDS011;5061;49.068;12.058;2022-09-09T05:39:57;4.60;;;3.00;;
10041;SDS011;5061;49.068;12.058;2022-09-09T05:43:19;3.53;;;2.83;;
10041;SDS011;5061;49.068;12.058;2022-09-09T05:46:40;2.30;;;2.10;;
10041;SDS011;5061;49.068;12.058;2022-09-09T05:50:01;3.07;;;2.80;;
10041;SDS011;5061;49.068;12.058;2022-09-09T05:53:21;3.33;;;3.03;;
10041;SDS011;5061;49.068;12.058;2022-09-09T05:56:42;4.53;;;3.90;;
10041;SDS011;5061;49.068;12.058;2022-09-09T06:00:03;6.07;;;4.30;;
10041;SDS011;5061;49.068;12.058;2022-09-09T06:03:24;3.67;;;3.37;;
10041;SDS011;5061;49.068;12.058;2022-09-09T06:06:44;4.60;;;3.30;;
10041;SDS011;5061;49.068;12.058;2022-09-09T06:10:05;3.90;;;3.50;;
10041;SDS011;5061;49.068;12.058;2022-09-09T06:13:26;4.60;;;3.17;;
10041;SDS011;5061;49.068;12.058;2022-09-09T06:16:46;3.87;;;3.47;;
10041;SDS011;5061;49.068;12.058;2022-09-09T06:20:07;3.60;;;3.30;;
10041;SDS011;5061;49.068;12.058;2022-09-09T06:23:29;6.83;;;3.00;;
10041;SDS011;5061;49.068;12.058;2022-09-09T06:26:50;4.10;;;3.70;;
10041;SDS011;5061;49.068;12.058;2022-09-09T06:30:11;3.33;;;2.77;;
10041;SDS011;5061;49.068;12.058;2022-09-09T06:33:41;3.27;;;2.93;;
10041;SDS011;5061;49.068;12.058;2022-09-09T06:37:03;3.80;;;3.10;;
10041;SDS011;5061;49.068;12.058;2022-09-09T06:40:25;3.30;;;3.00;;
10041;SDS011;5061;49.068;12.058;2022-09-09T06:43:46;3.47;;;3.17;;
10041;SDS011;5061;49.068;12.058;2022-09-09T06:47:07;3.60;;;3.30;;
10041;SDS011;5061;49.068;12.058;2022-09-09T06:50:27;2.80;;;2.60;;
10041;SDS011;5061;49.068;12.058;2022-09-09T06:53:52;2.83;;;2.50;;
10041;SDS011;5061;49.068;12.058;2022-09-09T06:57:14;2.93;;;2.57;;
10041;SDS011;5061;49.068;12.058;2022-09-09T07:00:35;2.57;;;2.33;;
10041;SDS011;5061;49.068;12.058;2022-09-09T07:03:58;3.50;;;3.20;;
10041;SDS011;5061;49.068;12.058;2022-09-09T07:07:19;2.10;;;1.90;;
10041;SDS011;5061;49.068;12.058;2022-09-09T07:10:39;2.50;;;2.30;;
10041;SDS011;5061;49.068;12.058;2022-09-09T07:14:00;2.60;;;2.27;;
10041;SDS011;5061;49.068;12.058;2022-09-09T07:17:21;1.97;;;1.87;;
10041;SDS011;5061;49.068;12.058;2022-09-09T07:20:42;2.00;;;1.90;;
10041;SDS011;5061;49.068;12.058;2022-09-09T07:24:02;3.20;;;2.90;;
10041;SDS011;5061;49.068;12.058;2022-09-09T07:27:27;2.30;;;2.10;;
10041;SDS011;5061;49.068;12.058;2022-09-09T07:30:57;2.20;;;2.00;;
10041;SDS011;5061;49.068;12.058;2022-09-09T07:34:22;3.83;;;2.27;;
10041;SDS011;5061;49.068;12.058;2022-09-09T07:37:43;2.23;;;1.97;;
10041;SDS011;5061;49.068;12.058;2022-09-09T07:41:05;2.17;;;1.97;;
10041;SDS011;5061;49.068;12.058;2022-09-09T07:44:31;3.33;;;3.03;;
10041;SDS011;5061;49.068;12.058;2022-09-09T07:47:55;4.47;;;2.80;;
10041;SDS011;5061;49.068;12.058;2022-09-09T07:51:17;3.80;;;3.30;;
10041;SDS011;5061;49.068;12.058;2022-09-09T07:54:48;3.50;;;2.73;;
10041;SDS011;5061;49.068;12.058;2022-09-09T07:58:08;3.90;;;3.60;;
10041;SDS011;5061;49.068;12.058;2022-09-09T08:01:33;3.03;;;2.73;;
10041;SDS011;5061;49.068;12.058;2022-09-09T08:04:58;2.70;;;2.50;;
10041;SDS011;5061;49.068;12.058;2022-09-09T08:08:19;4.07;;;3.30;;
10041;SDS011;5061;49.068;12.058;2022-09-09T08:11:40;3.47;;;2.57;;
10041;SDS011;5061;49.068;12.058;2022-09-09T08:15:01;3.17;;;2.87;;
10041;SDS011;5061;49.068;12.058;2022-09-09T08:18:22;3.70;;;2.30;;
10041;SDS011;5061;49.068;12.058;2022-09-09T08:21:44;2.33;;;2.13;;
10041;SDS011;5061;49.068;12.058;2022-09-09T08:25:05;2.40;;;2.20;;
10041;SDS011;5061;49.068;12.058;2022-09-09T08:28:27;2.00;;;1.90;;
10041;SDS011;5061;49.068;12.058;2022-09-09T08:31:49;1.80;;;1.70;;
10041;SDS011;5061;49.068;12.058;2022-09-09T08:35:11;1.53;;;1.43;;
10041;SDS011;5061;49.068;12.058;2022-09-09T08:38:32;2.80;;;2.10;;
10041;SDS011;5061;49.068;12.058;2022-09-09T08:45:31;1.67;;;1.57;;
10041;SDS011;5061;49.068;12.058;2022-09-09T08:49:06;1.90;;;1.80;;
10041;SDS011;5061;49.068;12.058;2022-09-09T08:56:28;1.70;;;1.60;;
10041;SDS011;5061;49.068;12.058;2022-09-09T08:59:52;1.40;;;1.30;;
10041;SDS011;5061;49.068;12.058;2022-09-09T09:03:17;2.17;;;1.97;;
10041;SDS011;5061;49.068;12.058;2022-09-09T09:10:49;1.87;;;1.20;;
10041;SDS011;5061;49.068;12.058;2022-09-09T09:14:21;1.10;;;1.00;;
10041;SDS011;5061;49.068;12.058;2022-09-09T09:17:45;1.30;;;1.20;;
10041;SDS011;5061;49.068;12.058;2022-09-09T09:21:16;0.87;;;0.83;;
10041;SDS011;5061;49.068;12.058;2022-09-09T09:28:38;1.10;;;1.00;;
10041;SDS011;5061;49.068;12.058;2022-09-09T09:32:00;1.00;;;0.90;;
10041;SDS011;5061;49.068;12.058;2022-09-09T09:35:23;1.30;;;1.20;;
10041;SDS011;5061;49.068;12.058;2022-09-09T09:38:54;1.20;;;1.10;;
10041;SDS011;5061;49.068;12.058;2022-09-09T09:42:17;1.27;;;1.17;;
10041;SDS011;5061;49.068;12.058;2022-09-09T09:45:42;1.60;;;1.50;;
10041;SDS011;5061;49.068;12.058;2022-09-09T09:49:08;1.30;;;1.20;;
10041;SDS011;5061;49.068;12.058;2022-09-09T09:52:30;1.53;;;1.43;;
10041;SDS011;5061;49.068;12.058;2022-09-09T09:56:02;1.37;;;1.27;;
10041;SDS011;5061;49.068;12.058;2022-09-09T10:02:54;1.50;;;1.40;;
10041;SDS011;5061;49.068;12.058;2022-09-09T10:06:16;1.40;;;1.23;;
10041;SDS011;5061;49.068;12.058;2022-09-09T10:09:36;2.77;;;1.70;;
10041;SDS011;5061;49.068;12.058;2022-09-09T10:34:57;0.90;;;0.80;;
10041;SDS011;5061;49.068;12.058;2022-09-09T10:42:12;1.47;;;1.03;;
10041;SDS011;5061;49.068;12.058;2022-09-09T10:56:28;1.27;;;1.17;;
10041;SDS011;5061;49.068;12.058;2022-09-09T10:59:50;1.70;;;1.00;;
10041;SDS011;5061;49.068;12.058;2022-09-09T11:03:23;1.83;;;1.00;;
10041;SDS011;5061;49.068;12.058;2022-09-09T11:06:50;1.60;;;1.27;;
10041;SDS011;5061;49.068;12.058;2022-09-09T11:17:22;1.40;;;1.30;;
10041;SDS011;5061;49.068;12.058;2022-09-09T11:20:47;1.87;;;1.43;;
10041;SDS011;5061;49.068;12.058;2022-09-09T11:38:53;1.10;;;1.00;;
10041;SDS011;5061;49.068;12.058;2022-09-09T11:42:38;1.30;;;1.10;;
10041;SDS011;5061;49.068;12.058;2022-09-09T11:46:02;0.90;;;0.87;;
10041;SDS011;5061;49.068;12.058;2022-09-09T11:49:38;1.73;;;1.00;;
10041;SDS011;5061;49.068;12.058;2022-09-09T11:53:15;1.10;;;1.00;;
10041;SDS011;5061;49.068;12.058;2022-09-09T11:56:43;0.87;;;0.87;;
10041;SDS011;5061;49.068;12.058;2022-09-09T12:00:05;1.17;;;1.03;;
10041;SDS011;5061;49.068;12.058;2022-09-09T12:03:41;1.23;;;1.13;;
10041;SDS011;5061;49.068;12.058;2022-09-09T12:10:29;1.30;;;1.20;;
10041;SDS011;5061;49.068;12.058;2022-09-09T12:13:57;1.10;;;1.00;;
10041;SDS011;5061;49.068;12.058;2022-09-09T12:17:23;1.60;;;1.47;;
10041;SDS011;5061;49.068;12.058;2022-09-09T12:21:01;2.27;;;1.37;;
10041;SDS011;5061;49.068;12.058;2022-09-09T12:24:43;1.40;;;1.30;;
10041;SDS011;5061;49.068;12.058;2022-09-09T12:28:18;1.50;;;1.40;;
10041;SDS011;5061;49.068;12.058;2022-09-09T12:35:25;1.33;;;1.00;;
10041;SDS011;5061;49.068;12.058;2022-09-09T12:38:48;1.30;;;1.20;;
10041;SDS011;5061;49.068;12.058;2022-09-09T12:42:16;0.97;;;0.83;;
10041;SDS011;5061;49.068;12.058;2022-09-09T12:45:37;3.10;;;1.40;;
10041;SDS011;5061;49.068;12.058;2022-09-09T12:49:01;1.30;;;1.10;;
10041;SDS011;5061;49.068;12.058;2022-09-09T12:52:27;1.27;;;0.90;;
10041;SDS011;5061;49.068;12.058;2022-09-09T12:55:54;1.30;;;1.20;;
10041;SDS011;5061;49.068;12.058;2022-09-09T12:59:22;1.10;;;1.00;;
10041;SDS011;5061;49.068;12.058;2022-09-09T13:02:45;1.00;;;0.90;;
10041;SDS011;5061;49.068;12.058;2022-09-09T13:06:12;1.37;;;1.10;;
10041;SDS011;5061;49.068;12.058;2022-09-09T13:09:34;3.33;;;1.00;;
10041;SDS011;5061;49.068;12.058;2022-09-09T13:12:54;1.40;;;1.10;;
10041;SDS011;5061;49.068;12.058;2022-09-09T13:16:19;1.93;;;1.10;;
10041;SDS011;5061;49.068;12.058;2022-09-09T13:19:43;1.07;;;0.97;;
10041;SDS011;5061;49.068;12.058;2022-09-09T13:23:05;1.67;;;1.17;;
10041;SDS011;5061;49.068;12.058;2022-09-09T13:26:26;1.00;;;0.90;;
10041;SDS011;5061;49.068;12.058;2022-09-09T13:29:56;1.37;;;1.27;;
10041;SDS011;5061;49.068;12.058;2022-09-09T13:33:20;1.10;;;1.00;;
10041;SDS011;5061;49.068;12.058;2022-09-09T13:36:46;3.30;;;1.20;;
10041;SDS011;5061;49.068;12.058;2022-09-09T13:40:18;2.27;;;1.00;;
10041;SDS011;5061;49.068;12.058;2022-09-09T13:43:45;1.47;;;1.10;;
10041;SDS011;5061;49.068;12.058;2022-09-09T13:50:36;1.00;;;0.90;;
10041;SDS011;5061;49.068;12.058;2022-09-09T13:53:56;0.83;;;0.80;;
10041;SDS011;5061;49.068;12.058;2022-09-09T13:57:19;1.57;;;0.97;;
10041;SDS011;5061;49.068;12.058;2022-09-09T14:00:41;2.03;;;1.10;;
10041;SDS011;5061;49.068;12.058;2022-09-09T14:04:04;1.90;;;1.20;;
10041;SDS011;5061;49.068;12.058;2022-09-09T14:07:26;2.57;;;1.10;;
10041;SDS011;5061;49.068;12.058;2022-09-09T14:10:47;2.37;;;1.13;;
10041;SDS011;5061;49.068;12.058;2022-09-09T14:14:07;1.00;;;0.80;;
10041;SDS011;5061;49.068;12.058;2022-09-09T14:17:28;0.80;;;0.80;;
10041;SDS011;5061;49.068;12.058;2022-09-09T14:20:50;1.13;;;1.03;;
10041;SDS011;5061;49.068;12.058;2022-09-09T14:24:11;0.80;;;0.80;;
10041;SDS011;5061;49.068;12.058;2022-09-09T14:27:32;1.20;;;0.90;;
10041;SDS011;5061;49.068;12.058;2022-09-09T14:30:53;0.80;;;0.70;;
10041;SDS011;5061;49.068;12.058;2022-09-09T14:34:13;0.80;;;0.80;;
10041;SDS011;5061;49.068;12.058;2022-09-09T14:37:34;2.03;;;0.80;;
10041;SDS011;5061;49.068;12.058;2022-09-09T14:40:55;0.80;;;0.70;;
10041;SDS011;5061;49.068;12.058;2022-09-09T14:44:16;1.63;;;0.80;;
10041;SDS011;5061;49.068;12.058;2022-09-09T14:47:36;0.90;;;0.80;;
10041;SDS011;5061;49.068;12.058;2022-09-09T14:51:02;0.80;;;0.70;;
10041;SDS011;5061;49.068;12.058;2022-09-09T14:54:25;0.80;;;0.80;;
10041;SDS011;5061;49.068;12.058;2022-09-09T14:57:46;0.87;;;0.77;;
10041;SDS011;5061;49.068;12.058;2022-09-09T15:01:07;1.13;;;0.80;;
10041;SDS011;5061;49.068;12.058;2022-09-09T15:04:31;1.20;;;0.80;;
10041;SDS011;5061;49.068;12.058;2022-09-09T15:07:51;1.00;;;0.90;;
10041;SDS011;5061;49.068;12.058;2022-09-09T15:11:13;1.40;;;0.80;;
10041;SDS011;5061;49.068;12.058;2022-09-09T15:14:34;0.93;;;0.80;;
10041;SDS011;5061;49.068;12.058;2022-09-09T15:17:55;1.00;;;0.90;;
10041;SDS011;5061;49.068;12.058;2022-09-09T15:21:17;1.20;;;0.80;;
10041;SDS011;5061;49.068;12.058;2022-09-09T15:24:39;1.00;;;0.87;;
10041;SDS011;5061;49.068;12.058;2022-09-09T15:27:59;0.80;;;0.70;;
10041;SDS011;5061;49.068;12.058;2022-09-09T15:31:21;1.97;;;0.93;;
10041;SDS011;5061;49.068;12.058;2022-09-09T15:34:45;1.30;;;0.93;;
10041;SDS011;5061;49.068;12.058;2022-09-09T15:38:06;1.20;;;0.70;;
10041;SDS011;5061;49.068;12.058;2022-09-09T15:41:26;1.30;;;0.90;;
10041;SDS011;5061;49.068;12.058;2022-09-09T15:44:48;0.80;;;0.70;;
10041;SDS011;5061;49.068;12.058;2022-09-09T15:48:08;1.00;;;0.90;;
10041;SDS011;5061;49.068;12.058;2022-09-09T15:51:29;1.93;;;1.00;;
10041;SDS011;5061;49.068;12.058;2022-09-09T15:54:50;1.00;;;0.80;;
10041;SDS011;5061;49.068;12.058;2022-09-09T15:58:11;0.90;;;0.70;;
10041;SDS011;5061;49.068;12.058;2022-09-09T16:01:32;0.80;;;0.70;;
10041;SDS011;5061;49.068;12.058;2022-09-09T16:04:53;0.80;;;0.80;;
10041;SDS011;5061;49.068;12.058;2022-09-09T16:08:15;1.20;;;0.90;;
10041;SDS011;5061;49.068;12.058;2022-09-09T16:11:37;0.70;;;0.70;;
10041;SDS011;5061;49.068;12.058;2022-09-09T16:14:59;0.70;;;0.70;;
10041;SDS011;5061;49.068;12.058;2022-09-09T16:18:19;1.00;;;0.90;;
10041;SDS011;5061;49.068;12.058;2022-09-09T16:21:41;0.80;;;0.70;;
10041;SDS011;5061;49.068;12.058;2022-09-09T16:25:04;1.00;;;0.90;;
10041;SDS011;5061;49.068;12.058;2022-09-09T16:28:25;0.93;;;0.77;;
10041;SDS011;5061;49.068;12.058;2022-09-09T16:31:46;0.90;;;0.70;;
10041;SDS011;5061;49.068;12.058;2022-09-09T16:35:08;1.00;;;0.80;;
10041;SDS011;5061;49.068;12.058;2022-09-09T16:38:29;0.70;;;0.70;;
10041;SDS011;5061;49.068;12.058;2022-09-09T16:41:50;1.03;;;0.73;;
10041;SDS011;5061;49.068;12.058;2022-09-09T16:45:12;0.73;;;0.70;;
10041;SDS011;5061;49.068;12.058;2022-09-09T16:48:34;0.80;;;0.70;;
10041;SDS011;5061;49.068;12.058;2022-09-09T16:51:58;1.43;;;0.80;;
10041;SDS011;5061;49.068;12.058;2022-09-09T16:55:19;2.17;;;1.43;;
10041;SDS011;5061;49.068;12.058;2022-09-09T16:58:48;1.93;;;1.00;;
10041;SDS011;5061;49.068;12.058;2022-09-09T17:02:10;0.90;;;0.70;;
10041;SDS011;5061;49.068;12.058;2022-09-09T17:05:31;1.13;;;0.80;;
10041;SDS011;5061;49.068;12.058;2022-09-09T17:08:56;0.80;;;0.70;;
10041;SDS011;5061;49.068;12.058;2022-09-09T17:12:24;1.00;;;0.83;;
10041;SDS011;5061;49.068;12.058;2022-09-09T17:15:45;1.10;;;0.80;;
10041;SDS011;5061;49.068;12.058;2022-09-09T17:19:06;2.60;;;0.80;;
10041;SDS011;5061;49.068;12.058;2022-09-09T17:22:29;2.33;;;0.70;;
10041;SDS011;5061;49.068;12.058;2022-09-09T17:25:56;1.00;;;0.70;;
10041;SDS011;5061;49.068;12.058;2022-09-09T17:29:18;1.20;;;0.70;;
10041;SDS011;5061;49.068;12.058;2022-09-09T17:32:39;2.30;;;0.73;;
10041;SDS011;5061;49.068;12.058;2022-09-09T17:36:01;0.80;;;0.70;;
10041;SDS011;5061;49.068;12.058;2022-09-09T17:39:23;0.90;;;0.70;;
10041;SDS011;5061;49.068;12.058;2022-09-09T17:42:43;1.00;;;0.90;;
10041;SDS011;5061;49.068;12.058;2022-09-09T17:46:06;2.40;;;0.90;;
10041;SDS011;5061;49.068;12.058;2022-09-09T17:49:29;0.70;;;0.60;;
10041;SDS011;5061;49.068;12.058;2022-09-09T17:52:50;0.90;;;0.70;;
10041;SDS011;5061;49.068;12.058;2022-09-09T17:56:11;1.20;;;0.70;;
10041;SDS011;5061;49.068;12.058;2022-09-09T17:59:34;0.80;;;0.60;;
10041;SDS011;5061;49.068;12.058;2022-09-09T18:02:54;1.53;;;1.17;;
10041;SDS011;5061;49.068;12.058;2022-09-09T18:06:19;0.70;;;0.67;;
10041;SDS011;5061;49.068;12.058;2022-09-09T18:09:41;1.40;;;1.00;;
10041;SDS011;5061;49.068;12.058;2022-09-09T18:13:06;2.23;;;0.80;;
10041;SDS011;5061;49.068;12.058;2022-09-09T18:16:31;0.80;;;0.70;;
10041;SDS011;5061;49.068;12.058;2022-09-09T18:19:56;0.80;;;0.70;;
10041;SDS011;5061;49.068;12.058;2022-09-09T18:23:16;0.80;;;0.70;;
10041;SDS011;5061;49.068;12.058;2022-09-09T18:26:37;2.50;;;0.70;;
10041;SDS011;5061;49.068;12.058;2022-09-09T18:29:58;2.07;;;0.83;;
10041;SDS011;5061;49.068;12.058;2022-09-09T18:33:19;0.87;;;0.73;;
10041;SDS011;5061;49.068;12.058;2022-09-09T18:36:41;2.50;;;1.97;;
10041;SDS011;5061;49.068;12.058;2022-09-09T18:40:12;2.40;;;1.83;;
10041;SDS011;5061;49.068;12.058;2022-09-09T18:43:33;1.50;;;1.40;;
10041;SDS011;5061;49.068;12.058;2022-09-09T18:46:54;1.20;;;1.10;;
10041;SDS011;5061;49.068;12.058;2022-09-09T18:50:14;0.93;;;0.83;;
10041;SDS011;5061;49.068;12.058;2022-09-09T18:53:35;0.90;;;0.80;;
10041;SDS011;5061;49.068;12.058;2022-09-09T18:56:57;2.10;;;1.53;;
10041;SDS011;5061;49.068;12.058;2022-09-09T19:00:19;0.90;;;0.67;;
10041;SDS011;5061;49.068;12.058;2022-09-09T19:03:40;1.10;;;0.80;;
10041;SDS011;5061;49.068;12.058;2022-09-09T19:07:01;0.80;;;0.70;;
10041;SDS011;5061;49.068;12.058;2022-09-09T19:10:21;0.80;;;0.77;;
10041;SDS011;5061;49.068;12.058;2022-09-09T19:13:42;1.07;;;0.77;;
10041;SDS011;5061;49.068;12.058;2022-09-09T19:17:03;1.00;;;0.70;;
10041;SDS011;5061;49.068;12.058;2022-09-09T19:20:23;1.27;;;0.83;;
10041;SDS011;5061;49.068;12.058;2022-09-09T19:23:45;1.57;;;0.80;;
10041;SDS011;5061;49.068;12.058;2022-09-09T19:27:06;1.10;;;0.70;;
10041;SDS011;5061;49.068;12.058;2022-09-09T19:30:26;0.97;;;0.67;;
10041;SDS011;5061;49.068;12.058;2022-09-09T19:33:47;0.80;;;0.70;;
10041;SDS011;5061;49.068;12.058;2022-09-09T19:37:08;0.80;;;0.70;;
10041;SDS011;5061;49.068;12.058;2022-09-09T19:40:29;0.80;;;0.70;;
10041;SDS011;5061;49.068;12.058;2022-09-09T19:43:50;0.80;;;0.70;;
10041;SDS011;5061;49.068;12.058;2022-09-09T19:47:12;1.00;;;0.70;;
10041;SDS011;5061;49.068;12.058;2022-09-09T19:50:34;0.80;;;0.70;;
10041;SDS011;5061;49.068;12.058;2022-09-09T19:53:57;0.80;;;0.70;;
10041;SDS011;5061;49.068;12.058;2022-09-09T19:57:22;0.70;;;0.70;;
10041;SDS011;5061;49.068;12.058;2022-09-09T20:00:43;1.00;;;0.70;;
10041;SDS011;5061;49.068;12.058;2022-09-09T20:04:04;0.90;;;0.80;;
10041;SDS011;5061;49.068;12.058;2022-09-09T20:07:25;0.90;;;0.80;;
10041;SDS011;5061;49.068;12.058;2022-09-09T20:10:49;0.90;;;0.80;;
10041;SDS011;5061;49.068;12.058;2022-09-09T20:14:12;1.20;;;1.10;;
10041;SDS011;5061;49.068;12.058;2022-09-09T20:17:34;1.17;;;0.80;;
10041;SDS011;5061;49.068;12.058;2022-09-09T20:21:11;0.80;;;0.70;;
10041;SDS011;5061;49.068;12.058;2022-09-09T20:24:39;0.80;;;0.73;;
10041;SDS011;5061;49.068;12.058;2022-09-09T20:28:02;0.90;;;0.80;;
10041;SDS011;5061;49.068;12.058;2022-09-09T20:31:33;0.80;;;0.80;;
10041;SDS011;5061;49.068;12.058;2022-09-09T20:35:01;1.57;;;0.70;;
10041;SDS011;5061;49.068;12.058;2022-09-09T20:38:22;0.80;;;0.73;;
10041;SDS011;5061;49.068;12.058;2022-09-09T20:41:43;0.87;;;0.70;;
10041;SDS011;5061;49.068;12.058;2022-09-09T20:45:05;0.80;;;0.70;;
10041;SDS011;5061;49.068;12.058;2022-09-09T20:48:26;0.70;;;0.70;;
10041;SDS011;5061;49.068;12.058;2022-09-09T20:51:47;0.70;;;0.70;;
10041;SDS011;5061;49.068;12.058;2022-09-09T20:55:09;0.90;;;0.80;;
10041;SDS011;5061;49.068;12.058;2022-09-09T20:58:30;1.17;;;0.80;;
10041;SDS011;5061;49.068;12.058;2022-09-09T21:01:51;0.90;;;0.80;;
10041;SDS011;5061;49.068;12.058;2022-09-09T21:05:12;0.90;;;0.80;;
10041;SDS011;5061;49.068;12.058;2022-09-09T21:08:36;1.27;;;0.80;;
10041;SDS011;5061;49.068;12.058;2022-09-09T21:11:57;1.00;;;0.90;;
10041;SDS011;5061;49.068;12.058;2022-09-09T21:15:17;1.83;;;0.90;;
10041;SDS011;5061;49.068;12.058;2022-09-09T21:18:38;1.27;;;1.17;;
10041;SDS011;5061;49.068;12.058;2022-09-09T21:21:59;2.20;;;1.10;;
10041;SDS011;5061;49.068;12.058;2022-09-09T21:25:20;1.30;;;1.00;;
10041;SDS011;5061;49.068;12.058;2022-09-09T21:28:41;0.90;;;0.80;;
10041;SDS011;5061;49.068;12.058;2022-09-09T21:32:01;0.97;;;0.87;;
10041;SDS011;5061;49.068;12.058;2022-09-09T21:35:22;1.10;;;1.00;;
10041;SDS011;5061;49.068;12.058;2022-09-09T21:38:43;0.90;;;0.80;;
10041;SDS011;5061;49.068;12.058;2022-09-09T21:42:04;1.17;;;0.80;;
10041;SDS011;5061;49.068;12.058;2022-09-09T21:45:25;1.10;;;0.90;;
10041;SDS011;5061;49.068;12.058;2022-09-09T21:48:47;0.80;;;0.80;;
10041;SDS011;5061;49.068;12.058;2022-09-09T21:52:09;0.80;;;0.70;;
10041;SDS011;5061;49.068;12.058;2022-09-09T21:55:33;0.80;;;0.70;;
10041;SDS011;5061;49.068;12.058;2022-09-09T21:58:57;0.87;;;0.80;;
10041;SDS011;5061;49.068;12.058;2022-09-09T22:02:18;0.80;;;0.70;;
10041;SDS011;5061;49.068;12.058;2022-09-09T22:05:41;1.20;;;0.80;;
10041;SDS011;5061;49.068;12.058;2022-09-09T22:09:02;0.80;;;0.70;;
10041;SDS011;5061;49.068;12.058;2022-09-09T22:12:23;0.70;;;0.70;;
10041;SDS011;5061;49.068;12.058;2022-09-09T22:15:44;0.80;;;0.77;;
10041;SDS011;5061;49.068;12.058;2022-09-09T22:19:05;1.40;;;0.80;;
10041;SDS011;5061;49.068;12.058;2022-09-09T22:22:26;1.00;;;0.90;;
10041;SDS011;5061;49.068;12.058;2022-09-09T22:25:47;0.90;;;0.70;;
10041;SDS011;5061;49.068;12.058;2022-09-09T22:29:09;0.80;;;0.70;;
10041;SDS011;5061;49.068;12.058;2022-09-09T22:32:30;0.80;;;0.70;;
10041;SDS011;5061;49.068;12.058;2022-09-09T22:35:51;0.70;;;0.70;;